Declo, Idaho
Current Conditions -  °F | °C
As of 3:53 AM on Thursday 23 Oct 2014 (Local Time) from KBYI Reporting Station
Clear Clear  
Wind Chill: 47°   Ceiling: Unl
Heat Index: 49°   Visibility: 10mi
Dew Point: 31°   Wind: 6mph
Humidity: 50%   Direction: 340°NNW
Pressure: 30.06"   Gusts: NA
Location:  42.52°N, 113.63°W
Report Text: KBYI 230953Z AUTO 34005KT 10SM CLR 09/M01 A3006 RMK AO2 SLP157 T00941006
Loading
Personal Weather Stations






























Interactive Weather Map
Tropical Storm Tracking
New forecast layout! Learn more

10-Day Weather Forecast

Advertisements
Track Severe Weather on mobile